sensor_id;sensor_type;location;lat;lon;timestamp;temperature;humidity
28023;DHT22;67403;50.104;8.758;2023-03-20T00:00:17;10.00;99.90
28023;DHT22;67403;50.104;8.758;2023-03-20T00:02:44;10.10;99.90
28023;DHT22;67403;50.104;8.758;2023-03-20T00:05:15;10.00;99.90
28023;DHT22;67403;50.104;8.758;2023-03-20T00:07:46;10.00;99.90
28023;DHT22;67403;50.104;8.758;2023-03-20T00:10:15;10.00;99.90
28023;DHT22;67403;50.104;8.758;2023-03-20T00:12:42;10.00;99.90
28023;DHT22;67403;50.104;8.758;2023-03-20T00:15:23;10.00;99.90
28023;DHT22;67403;50.104;8.758;2023-03-20T00:17:52;10.00;99.90
28023;DHT22;67403;50.104;8.758;2023-03-20T00:20:19;10.00;99.90
28023;DHT22;67403;50.104;8.758;2023-03-20T00:22:48;10.00;99.90
28023;DHT22;67403;50.104;8.758;2023-03-20T00:25:16;10.00;99.90
28023;DHT22;67403;50.104;8.758;2023-03-20T00:27:44;10.00;99.90
28023;DHT22;67403;50.104;8.758;2023-03-20T00:30:23;10.00;99.90
28023;DHT22;67403;50.104;8.758;2023-03-20T00:32:51;10.00;99.90
28023;DHT22;67403;50.104;8.758;2023-03-20T00:35:24;10.00;99.90
28023;DHT22;67403;50.104;8.758;2023-03-20T00:37:54;9.90;99.90
28023;DHT22;67403;50.104;8.758;2023-03-20T00:40:23;9.90;99.90
28023;DHT22;67403;50.104;8.758;2023-03-20T00:42:57;9.90;99.90
28023;DHT22;67403;50.104;8.758;2023-03-20T00:45:25;9.90;99.90
28023;DHT22;67403;50.104;8.758;2023-03-20T00:47:52;9.90;99.90
28023;DHT22;67403;50.104;8.758;2023-03-20T00:50:21;9.90;99.90
28023;DHT22;67403;50.104;8.758;2023-03-20T00:52:49;9.80;99.90
28023;DHT22;67403;50.104;8.758;2023-03-20T00:55:18;9.80;99.90
28023;DHT22;67403;50.104;8.758;2023-03-20T00:57:48;9.90;99.90
28023;DHT22;67403;50.104;8.758;2023-03-20T01:00:23;9.90;99.90
28023;DHT22;67403;50.104;8.758;2023-03-20T01:02:52;9.80;99.90
28023;DHT22;67403;50.104;8.758;2023-03-20T01:05:20;9.80;99.90
28023;DHT22;67403;50.104;8.758;2023-03-20T01:07:47;9.80;99.90
28023;DHT22;67403;50.104;8.758;2023-03-20T01:10:14;9.80;99.90
28023;DHT22;67403;50.104;8.758;2023-03-20T01:12:43;9.80;99.90
28023;DHT22;67403;50.104;8.758;2023-03-20T01:15:18;9.80;99.90
28023;DHT22;67403;50.104;8.758;2023-03-20T01:17:47;9.70;99.90
28023;DHT22;67403;50.104;8.758;2023-03-20T01:20:17;9.80;99.90
28023;DHT22;67403;50.104;8.758;2023-03-20T01:22:44;9.70;99.90
28023;DHT22;67403;50.104;8.758;2023-03-20T01:25:11;9.70;99.90
28023;DHT22;67403;50.104;8.758;2023-03-20T01:27:38;9.70;99.90
28023;DHT22;67403;50.104;8.758;2023-03-20T01:30:19;9.70;99.90
28023;DHT22;67403;50.104;8.758;2023-03-20T01:32:47;9.70;99.90
28023;DHT22;67403;50.104;8.758;2023-03-20T01:35:15;9.70;99.90
28023;DHT22;67403;50.104;8.758;2023-03-20T01:37:44;9.70;99.90
28023;DHT22;67403;50.104;8.758;2023-03-20T01:40:26;9.70;99.90
28023;DHT22;67403;50.104;8.758;2023-03-20T01:42:53;9.70;99.90
28023;DHT22;67403;50.104;8.758;2023-03-20T01:45:25;9.70;99.90
28023;DHT22;67403;50.104;8.758;2023-03-20T01:47:54;9.70;99.90
28023;DHT22;67403;50.104;8.758;2023-03-20T01:50:26;9.60;99.90
28023;DHT22;67403;50.104;8.758;2023-03-20T01:52:55;9.60;99.90
28023;DHT22;67403;50.104;8.758;2023-03-20T01:55:24;9.60;99.90
28023;DHT22;67403;50.104;8.758;2023-03-20T01:57:53;9.60;99.90
28023;DHT22;67403;50.104;8.758;2023-03-20T02:00:23;9.50;99.90
28023;DHT22;67403;50.104;8.758;2023-03-20T02:02:50;9.60;99.90
28023;DHT22;67403;50.104;8.758;2023-03-20T02:05:19;9.60;99.90
28023;DHT22;67403;50.104;8.758;2023-03-20T02:07:53;9.50;99.90
28023;DHT22;67403;50.104;8.758;2023-03-20T02:10:22;9.50;99.90
28023;DHT22;67403;50.104;8.758;2023-03-20T02:12:49;9.60;99.90
28023;DHT22;67403;50.104;8.758;2023-03-20T02:15:16;9.50;99.90
28023;DHT22;67403;50.104;8.758;2023-03-20T02:17:45;9.50;99.90
28023;DHT22;67403;50.104;8.758;2023-03-20T02:20:20;9.50;99.90
28023;DHT22;67403;50.104;8.758;2023-03-20T02:23:32;9.50;99.90
28023;DHT22;67403;50.104;8.758;2023-03-20T02:26:20;9.50;99.90
28023;DHT22;67403;50.104;8.758;2023-03-20T02:32:28;9.50;99.90
28023;DHT22;67403;50.104;8.758;2023-03-20T02:38:10;9.40;99.90
28023;DHT22;67403;50.104;8.758;2023-03-20T02:40:43;9.40;99.90
28023;DHT22;67403;50.104;8.758;2023-03-20T02:43:19;9.50;99.90
28023;DHT22;67403;50.104;8.758;2023-03-20T02:45:52;9.50;99.90
28023;DHT22;67403;50.104;8.758;2023-03-20T02:48:26;9.50;99.90
28023;DHT22;67403;50.104;8.758;2023-03-20T02:51:00;9.40;99.90
28023;DHT22;67403;50.104;8.758;2023-03-20T02:53:35;9.40;99.90
28023;DHT22;67403;50.104;8.758;2023-03-20T02:56:11;9.40;99.90
28023;DHT22;67403;50.104;8.758;2023-03-20T02:58:46;9.40;99.90
28023;DHT22;67403;50.104;8.758;2023-03-20T03:01:16;9.50;99.90
28023;DHT22;67403;50.104;8.758;2023-03-20T03:03:49;9.50;99.90
28023;DHT22;67403;50.104;8.758;2023-03-20T03:06:28;9.50;99.90
28023;DHT22;67403;50.104;8.758;2023-03-20T03:09:01;9.40;99.90
28023;DHT22;67403;50.104;8.758;2023-03-20T03:11:31;9.40;99.90
28023;DHT22;67403;50.104;8.758;2023-03-20T03:13:59;9.50;99.90
28023;DHT22;67403;50.104;8.758;2023-03-20T03:16:30;9.40;99.90
28023;DHT22;67403;50.104;8.758;2023-03-20T03:19:04;9.40;99.90
28023;DHT22;67403;50.104;8.758;2023-03-20T03:21:35;9.40;99.90
28023;DHT22;67403;50.104;8.758;2023-03-20T03:24:05;9.40;99.90
28023;DHT22;67403;50.104;8.758;2023-03-20T03:26:36;9.50;99.90
28023;DHT22;67403;50.104;8.758;2023-03-20T03:29:08;9.50;99.90
28023;DHT22;67403;50.104;8.758;2023-03-20T03:31:37;9.50;99.90
28023;DHT22;67403;50.104;8.758;2023-03-20T03:34:05;9.40;99.90
28023;DHT22;67403;50.104;8.758;2023-03-20T03:36:37;9.40;99.90
28023;DHT22;67403;50.104;8.758;2023-03-20T03:39:15;9.40;99.90
28023;DHT22;67403;50.104;8.758;2023-03-20T03:41:48;9.40;99.90
28023;DHT22;67403;50.104;8.758;2023-03-20T03:44:21;9.40;99.90
28023;DHT22;67403;50.104;8.758;2023-03-20T03:46:51;9.40;99.90
28023;DHT22;67403;50.104;8.758;2023-03-20T03:49:21;9.40;99.90
28023;DHT22;67403;50.104;8.758;2023-03-20T03:51:52;9.40;99.90
28023;DHT22;67403;50.104;8.758;2023-03-20T03:54:24;9.40;99.90
28023;DHT22;67403;50.104;8.758;2023-03-20T03:56:53;9.40;99.90
28023;DHT22;67403;50.104;8.758;2023-03-20T03:59:25;9.40;99.90
28023;DHT22;67403;50.104;8.758;2023-03-20T04:01:55;9.40;99.90
28023;DHT22;67403;50.104;8.758;2023-03-20T04:04:24;9.40;99.90
28023;DHT22;67403;50.104;8.758;2023-03-20T04:06:51;9.40;99.90
28023;DHT22;67403;50.104;8.758;2023-03-20T04:09:18;9.40;99.90
28023;DHT22;67403;50.104;8.758;2023-03-20T04:11:49;9.40;99.90
28023;DHT22;67403;50.104;8.758;2023-03-20T04:14:17;9.40;99.90
28023;DHT22;67403;50.104;8.758;2023-03-20T04:16:44;9.40;99.90
28023;DHT22;67403;50.104;8.758;2023-03-20T04:19:11;9.30;99.90
28023;DHT22;67403;50.104;8.758;2023-03-20T04:21:38;9.40;99.90
28023;DHT22;67403;50.104;8.758;2023-03-20T04:24:05;9.30;99.90
28023;DHT22;67403;50.104;8.758;2023-03-20T04:26:32;9.30;99.90
28023;DHT22;67403;50.104;8.758;2023-03-20T04:29:01;9.30;99.90
28023;DHT22;67403;50.104;8.758;2023-03-20T04:31:28;9.30;99.90
28023;DHT22;67403;50.104;8.758;2023-03-20T04:33:55;9.30;99.90
28023;DHT22;67403;50.104;8.758;2023-03-20T04:36:22;9.40;99.90
28023;DHT22;67403;50.104;8.758;2023-03-20T04:38:49;9.30;99.90
28023;DHT22;67403;50.104;8.758;2023-03-20T04:41:16;9.30;99.90
28023;DHT22;67403;50.104;8.758;2023-03-20T04:43:45;9.30;99.90
28023;DHT22;67403;50.104;8.758;2023-03-20T04:46:13;9.30;99.90
28023;DHT22;67403;50.104;8.758;2023-03-20T04:48:40;9.30;99.90
28023;DHT22;67403;50.104;8.758;2023-03-20T04:51:07;9.20;99.90
28023;DHT22;67403;50.104;8.758;2023-03-20T04:53:34;9.30;99.90
28023;DHT22;67403;50.104;8.758;2023-03-20T04:56:01;9.30;99.90
28023;DHT22;67403;50.104;8.758;2023-03-20T04:58:28;9.30;99.90
28023;DHT22;67403;50.104;8.758;2023-03-20T05:00:55;9.30;99.90
28023;DHT22;67403;50.104;8.758;2023-03-20T05:03:23;9.30;99.90
28023;DHT22;67403;50.104;8.758;2023-03-20T05:05:50;9.30;99.90
28023;DHT22;67403;50.104;8.758;2023-03-20T05:08:17;9.40;99.90
28023;DHT22;67403;50.104;8.758;2023-03-20T05:10:44;9.40;99.90
28023;DHT22;67403;50.104;8.758;2023-03-20T05:13:11;9.30;99.90
28023;DHT22;67403;50.104;8.758;2023-03-20T05:15:38;9.40;99.90
28023;DHT22;67403;50.104;8.758;2023-03-20T05:18:04;9.40;99.90
28023;DHT22;67403;50.104;8.758;2023-03-20T05:20:33;9.40;99.90
28023;DHT22;67403;50.104;8.758;2023-03-20T05:23:01;9.30;99.90
28023;DHT22;67403;50.104;8.758;2023-03-20T05:25:27;9.40;99.90
28023;DHT22;67403;50.104;8.758;2023-03-20T05:27:54;9.40;99.90
28023;DHT22;67403;50.104;8.758;2023-03-20T05:30:21;9.40;99.90
28023;DHT22;67403;50.104;8.758;2023-03-20T05:32:48;9.40;99.90
28023;DHT22;67403;50.104;8.758;2023-03-20T05:35:17;9.40;99.90
28023;DHT22;67403;50.104;8.758;2023-03-20T05:37:45;9.40;99.90
28023;DHT22;67403;50.104;8.758;2023-03-20T05:40:14;9.40;99.90
28023;DHT22;67403;50.104;8.758;2023-03-20T05:42:41;9.40;99.90
28023;DHT22;67403;50.104;8.758;2023-03-20T05:45:08;9.50;99.90
28023;DHT22;67403;50.104;8.758;2023-03-20T05:47:35;9.40;99.90
28023;DHT22;67403;50.104;8.758;2023-03-20T05:50:03;9.40;99.90
28023;DHT22;67403;50.104;8.758;2023-03-20T05:52:30;9.50;99.90
28023;DHT22;67403;50.104;8.758;2023-03-20T05:54:58;9.50;99.90
28023;DHT22;67403;50.104;8.758;2023-03-20T05:57:25;9.50;99.90
28023;DHT22;67403;50.104;8.758;2023-03-20T05:59:52;9.60;99.90
28023;DHT22;67403;50.104;8.758;2023-03-20T06:02:19;9.50;99.90
28023;DHT22;67403;50.104;8.758;2023-03-20T06:04:46;9.50;99.90
28023;DHT22;67403;50.104;8.758;2023-03-20T06:07:13;9.50;99.90
28023;DHT22;67403;50.104;8.758;2023-03-20T06:09:40;9.50;99.90
28023;DHT22;67403;50.104;8.758;2023-03-20T06:12:08;9.50;99.90
28023;DHT22;67403;50.104;8.758;2023-03-20T06:14:35;9.50;99.90
28023;DHT22;67403;50.104;8.758;2023-03-20T06:17:02;9.50;99.90
28023;DHT22;67403;50.104;8.758;2023-03-20T06:19:30;9.50;99.90
28023;DHT22;67403;50.104;8.758;2023-03-20T06:21:56;9.50;99.90
28023;DHT22;67403;50.104;8.758;2023-03-20T06:24:24;9.70;99.90
28023;DHT22;67403;50.104;8.758;2023-03-20T06:26:51;9.70;99.90
28023;DHT22;67403;50.104;8.758;2023-03-20T06:29:19;9.70;99.90
28023;DHT22;67403;50.104;8.758;2023-03-20T06:31:46;9.70;99.90
28023;DHT22;67403;50.104;8.758;2023-03-20T06:34:13;9.70;99.90
28023;DHT22;67403;50.104;8.758;2023-03-20T06:36:41;9.80;99.90
28023;DHT22;67403;50.104;8.758;2023-03-20T06:39:08;9.80;99.90
28023;DHT22;67403;50.104;8.758;2023-03-20T06:41:34;9.80;99.90
28023;DHT22;67403;50.104;8.758;2023-03-20T06:44:01;9.80;99.90
28023;DHT22;67403;50.104;8.758;2023-03-20T06:46:30;9.80;99.90
28023;DHT22;67403;50.104;8.758;2023-03-20T06:48:57;9.80;99.90
28023;DHT22;67403;50.104;8.758;2023-03-20T06:51:24;9.80;99.90
28023;DHT22;67403;50.104;8.758;2023-03-20T06:53:51;9.70;99.90
28023;DHT22;67403;50.104;8.758;2023-03-20T06:56:18;9.80;99.90
28023;DHT22;67403;50.104;8.758;2023-03-20T06:58:45;9.80;99.90
28023;DHT22;67403;50.104;8.758;2023-03-20T07:01:13;9.90;99.90
28023;DHT22;67403;50.104;8.758;2023-03-20T07:03:43;9.90;99.90
28023;DHT22;67403;50.104;8.758;2023-03-20T07:06:10;10.00;99.90
28023;DHT22;67403;50.104;8.758;2023-03-20T07:08:38;10.00;99.90
28023;DHT22;67403;50.104;8.758;2023-03-20T07:11:05;10.00;99.90
28023;DHT22;67403;50.104;8.758;2023-03-20T07:13:32;10.00;99.90
28023;DHT22;67403;50.104;8.758;2023-03-20T07:16:00;10.00;99.90
28023;DHT22;67403;50.104;8.758;2023-03-20T07:18:27;10.00;99.90
28023;DHT22;67403;50.104;8.758;2023-03-20T07:20:59;10.00;99.90
28023;DHT22;67403;50.104;8.758;2023-03-20T07:23:27;10.00;99.90
28023;DHT22;67403;50.104;8.758;2023-03-20T07:25:53;10.00;99.90
28023;DHT22;67403;50.104;8.758;2023-03-20T07:28:20;10.10;99.90
28023;DHT22;67403;50.104;8.758;2023-03-20T07:30:47;10.10;99.90
28023;DHT22;67403;50.104;8.758;2023-03-20T07:33:14;10.10;99.90
28023;DHT22;67403;50.104;8.758;2023-03-20T07:35:41;10.00;99.90
28023;DHT22;67403;50.104;8.758;2023-03-20T07:38:10;10.10;99.90
28023;DHT22;67403;50.104;8.758;2023-03-20T07:40:37;10.00;99.90
28023;DHT22;67403;50.104;8.758;2023-03-20T07:43:03;9.90;99.90
28023;DHT22;67403;50.104;8.758;2023-03-20T07:45:30;9.90;99.90
28023;DHT22;67403;50.104;8.758;2023-03-20T07:47:57;9.90;99.90
28023;DHT22;67403;50.104;8.758;2023-03-20T07:50:24;9.80;99.90
28023;DHT22;67403;50.104;8.758;2023-03-20T07:52:51;9.80;99.90
28023;DHT22;67403;50.104;8.758;2023-03-20T07:55:19;9.80;99.90
28023;DHT22;67403;50.104;8.758;2023-03-20T07:57:47;9.80;99.90
28023;DHT22;67403;50.104;8.758;2023-03-20T08:00:17;9.80;99.90
28023;DHT22;67403;50.104;8.758;2023-03-20T08:02:44;9.70;99.90
28023;DHT22;67403;50.104;8.758;2023-03-20T08:05:11;9.70;99.90
28023;DHT22;67403;50.104;8.758;2023-03-20T08:07:38;9.70;99.90
28023;DHT22;67403;50.104;8.758;2023-03-20T08:10:06;9.70;99.90
28023;DHT22;67403;50.104;8.758;2023-03-20T08:12:34;9.70;99.90
28023;DHT22;67403;50.104;8.758;2023-03-20T08:15:02;9.70;99.90
28023;DHT22;67403;50.104;8.758;2023-03-20T08:17:28;9.80;99.90
28023;DHT22;67403;50.104;8.758;2023-03-20T08:19:56;9.80;99.90
28023;DHT22;67403;50.104;8.758;2023-03-20T08:22:22;9.80;99.90
28023;DHT22;67403;50.104;8.758;2023-03-20T08:24:49;9.90;99.90
28023;DHT22;67403;50.104;8.758;2023-03-20T08:27:16;9.90;99.90
28023;DHT22;67403;50.104;8.758;2023-03-20T08:29:45;9.90;99.90
28023;DHT22;67403;50.104;8.758;2023-03-20T08:32:12;10.00;99.90
28023;DHT22;67403;50.104;8.758;2023-03-20T08:34:39;9.90;99.90
28023;DHT22;67403;50.104;8.758;2023-03-20T08:37:06;9.90;99.90
28023;DHT22;67403;50.104;8.758;2023-03-20T08:39:33;9.80;99.90
28023;DHT22;67403;50.104;8.758;2023-03-20T08:42:00;9.70;99.90
28023;DHT22;67403;50.104;8.758;2023-03-20T08:44:27;9.60;99.90
28023;DHT22;67403;50.104;8.758;2023-03-20T08:46:56;9.50;99.90
28023;DHT22;67403;50.104;8.758;2023-03-20T08:49:24;9.50;99.90
28023;DHT22;67403;50.104;8.758;2023-03-20T08:51:51;9.30;99.90
28023;DHT22;67403;50.104;8.758;2023-03-20T08:54:17;9.30;99.90
28023;DHT22;67403;50.104;8.758;2023-03-20T08:56:45;9.40;99.90
28023;DHT22;67403;50.104;8.758;2023-03-20T08:59:12;9.40;99.90
28023;DHT22;67403;50.104;8.758;2023-03-20T09:01:39;9.50;99.90
28023;DHT22;67403;50.104;8.758;2023-03-20T09:04:07;9.50;99.90
28023;DHT22;67403;50.104;8.758;2023-03-20T09:06:35;9.50;99.90
28023;DHT22;67403;50.104;8.758;2023-03-20T09:09:03;9.60;99.90
28023;DHT22;67403;50.104;8.758;2023-03-20T09:11:30;9.70;99.90
28023;DHT22;67403;50.104;8.758;2023-03-20T09:13:58;9.70;99.90
28023;DHT22;67403;50.104;8.758;2023-03-20T09:16:25;9.70;99.90
28023;DHT22;67403;50.104;8.758;2023-03-20T09:18:52;9.70;99.90
28023;DHT22;67403;50.104;8.758;2023-03-20T09:21:20;9.70;99.90
28023;DHT22;67403;50.104;8.758;2023-03-20T09:23:47;9.70;99.90
28023;DHT22;67403;50.104;8.758;2023-03-20T09:26:14;9.80;99.90
28023;DHT22;67403;50.104;8.758;2023-03-20T09:28:41;9.90;99.90
28023;DHT22;67403;50.104;8.758;2023-03-20T09:31:08;9.90;99.90
28023;DHT22;67403;50.104;8.758;2023-03-20T09:33:36;9.90;99.90
28023;DHT22;67403;50.104;8.758;2023-03-20T09:36:03;9.90;99.90
28023;DHT22;67403;50.104;8.758;2023-03-20T09:38:32;9.90;99.90
28023;DHT22;67403;50.104;8.758;2023-03-20T09:41:00;10.00;99.90
28023;DHT22;67403;50.104;8.758;2023-03-20T09:43:45;10.20;99.90
28023;DHT22;67403;50.104;8.758;2023-03-20T09:46:26;10.30;99.90
28023;DHT22;67403;50.104;8.758;2023-03-20T09:49:02;10.50;99.90
28023;DHT22;67403;50.104;8.758;2023-03-20T09:51:36;10.70;99.90
28023;DHT22;67403;50.104;8.758;2023-03-20T09:54:09;10.90;99.90
28023;DHT22;67403;50.104;8.758;2023-03-20T09:56:37;11.10;99.90
28023;DHT22;67403;50.104;8.758;2023-03-20T09:59:05;11.40;99.90
28023;DHT22;67403;50.104;8.758;2023-03-20T10:01:41;11.80;99.90
28023;DHT22;67403;50.104;8.758;2023-03-20T10:04:10;12.00;99.90
28023;DHT22;67403;50.104;8.758;2023-03-20T10:06:37;11.80;99.90
28023;DHT22;67403;50.104;8.758;2023-03-20T10:09:15;12.00;99.90
28023;DHT22;67403;50.104;8.758;2023-03-20T10:12:08;12.10;99.90
28023;DHT22;67403;50.104;8.758;2023-03-20T10:14:48;11.90;99.90
28023;DHT22;67403;50.104;8.758;2023-03-20T10:17:28;12.10;99.90
28023;DHT22;67403;50.104;8.758;2023-03-20T10:19:57;12.50;99.90
28023;DHT22;67403;50.104;8.758;2023-03-20T10:22:28;12.80;99.90
28023;DHT22;67403;50.104;8.758;2023-03-20T10:25:03;13.10;99.90
28023;DHT22;67403;50.104;8.758;2023-03-20T10:27:34;13.80;99.90
28023;DHT22;67403;50.104;8.758;2023-03-20T10:30:21;13.40;99.90
28023;DHT22;67403;50.104;8.758;2023-03-20T10:32:58;12.50;99.90
28023;DHT22;67403;50.104;8.758;2023-03-20T10:35:35;12.80;99.90
28023;DHT22;67403;50.104;8.758;2023-03-20T10:38:13;13.20;99.90
28023;DHT22;67403;50.104;8.758;2023-03-20T10:40:45;13.30;99.90
28023;DHT22;67403;50.104;8.758;2023-03-20T10:43:15;13.10;99.90
28023;DHT22;67403;50.104;8.758;2023-03-20T10:45:46;13.10;99.90
28023;DHT22;67403;50.104;8.758;2023-03-20T10:48:20;14.10;99.90
28023;DHT22;67403;50.104;8.758;2023-03-20T10:50:50;15.30;99.90
28023;DHT22;67403;50.104;8.758;2023-03-20T10:53:29;14.90;99.90
28023;DHT22;67403;50.104;8.758;2023-03-20T10:56:01;14.60;99.90
28023;DHT22;67403;50.104;8.758;2023-03-20T10:58:31;14.00;99.90
28023;DHT22;67403;50.104;8.758;2023-03-20T11:00:59;14.10;99.90
28023;DHT22;67403;50.104;8.758;2023-03-20T11:03:29;14.60;99.90
28023;DHT22;67403;50.104;8.758;2023-03-20T11:05:59;15.40;99.90
28023;DHT22;67403;50.104;8.758;2023-03-20T11:08:33;15.80;99.90
28023;DHT22;67403;50.104;8.758;2023-03-20T11:11:03;15.70;99.90
28023;DHT22;67403;50.104;8.758;2023-03-20T11:13:33;15.30;99.90
28023;DHT22;67403;50.104;8.758;2023-03-20T11:16:10;15.30;99.90
28023;DHT22;67403;50.104;8.758;2023-03-20T11:18:39;15.50;99.90
28023;DHT22;67403;50.104;8.758;2023-03-20T11:21:14;15.30;99.90
28023;DHT22;67403;50.104;8.758;2023-03-20T11:23:42;14.80;99.90
28023;DHT22;67403;50.104;8.758;2023-03-20T11:26:13;14.30;99.90
28023;DHT22;67403;50.104;8.758;2023-03-20T11:28:47;14.30;99.90
28023;DHT22;67403;50.104;8.758;2023-03-20T11:31:17;14.50;99.90
28023;DHT22;67403;50.104;8.758;2023-03-20T11:33:50;14.30;99.90
28023;DHT22;67403;50.104;8.758;2023-03-20T11:36:23;14.20;99.90
28023;DHT22;67403;50.104;8.758;2023-03-20T11:38:51;14.20;99.90
28023;DHT22;67403;50.104;8.758;2023-03-20T11:41:24;14.20;99.90
28023;DHT22;67403;50.104;8.758;2023-03-20T11:43:51;15.40;99.90
28023;DHT22;67403;50.104;8.758;2023-03-20T11:46:20;16.60;99.90
28023;DHT22;67403;50.104;8.758;2023-03-20T11:49:02;16.80;99.90
28023;DHT22;67403;50.104;8.758;2023-03-20T11:51:31;16.40;99.90
28023;DHT22;67403;50.104;8.758;2023-03-20T11:54:02;16.20;99.90
28023;DHT22;67403;50.104;8.758;2023-03-20T11:56:32;15.40;99.90
28023;DHT22;67403;50.104;8.758;2023-03-20T11:59:13;14.50;99.90
28023;DHT22;67403;50.104;8.758;2023-03-20T12:01:44;14.30;99.90
28023;DHT22;67403;50.104;8.758;2023-03-20T12:04:15;14.60;99.90
28023;DHT22;67403;50.104;8.758;2023-03-20T12:06:46;14.60;99.90
28023;DHT22;67403;50.104;8.758;2023-03-20T12:09:32;14.60;99.90
28023;DHT22;67403;50.104;8.758;2023-03-20T12:12:04;15.30;99.90
28023;DHT22;67403;50.104;8.758;2023-03-20T12:14:39;14.60;99.90
28023;DHT22;67403;50.104;8.758;2023-03-20T12:17:25;14.30;99.90
28023;DHT22;67403;50.104;8.758;2023-03-20T12:20:30;14.30;99.90
28023;DHT22;67403;50.104;8.758;2023-03-20T12:23:19;14.60;99.90
28023;DHT22;67403;50.104;8.758;2023-03-20T12:25:50;14.80;99.90
28023;DHT22;67403;50.104;8.758;2023-03-20T12:28:25;14.30;99.90
28023;DHT22;67403;50.104;8.758;2023-03-20T12:31:00;14.40;99.90
28023;DHT22;67403;50.104;8.758;2023-03-20T12:33:43;14.40;99.90
28023;DHT22;67403;50.104;8.758;2023-03-20T12:36:16;14.10;99.90
28023;DHT22;67403;50.104;8.758;2023-03-20T12:38:44;13.60;99.90
28023;DHT22;67403;50.104;8.758;2023-03-20T12:41:14;13.60;99.90
28023;DHT22;67403;50.104;8.758;2023-03-20T12:44:10;13.50;99.90
28023;DHT22;67403;50.104;8.758;2023-03-20T12:46:43;13.60;99.90
28023;DHT22;67403;50.104;8.758;2023-03-20T12:49:28;13.90;99.90
28023;DHT22;67403;50.104;8.758;2023-03-20T12:52:07;14.20;99.90
28023;DHT22;67403;50.104;8.758;2023-03-20T12:54:55;14.20;99.90
28023;DHT22;67403;50.104;8.758;2023-03-20T12:57:33;14.00;99.90
28023;DHT22;67403;50.104;8.758;2023-03-20T13:00:17;14.00;99.90
28023;DHT22;67403;50.104;8.758;2023-03-20T13:02:55;14.00;99.90
28023;DHT22;67403;50.104;8.758;2023-03-20T13:05:42;14.00;99.90
28023;DHT22;67403;50.104;8.758;2023-03-20T13:08:24;14.20;99.90
28023;DHT22;67403;50.104;8.758;2023-03-20T13:11:02;14.30;99.90
28023;DHT22;67403;50.104;8.758;2023-03-20T13:13:37;14.40;99.90
28023;DHT22;67403;50.104;8.758;2023-03-20T13:16:17;14.40;99.90
28023;DHT22;67403;50.104;8.758;2023-03-20T13:18:52;14.80;99.90
28023;DHT22;67403;50.104;8.758;2023-03-20T13:21:27;15.10;99.90
28023;DHT22;67403;50.104;8.758;2023-03-20T13:24:06;15.40;99.90
28023;DHT22;67403;50.104;8.758;2023-03-20T13:26:38;15.40;99.90
28023;DHT22;67403;50.104;8.758;2023-03-20T13:29:11;15.30;99.90
28023;DHT22;67403;50.104;8.758;2023-03-20T13:31:51;15.10;99.90
28023;DHT22;67403;50.104;8.758;2023-03-20T13:34:27;14.90;99.90
28023;DHT22;67403;50.104;8.758;2023-03-20T13:37:07;14.80;99.90
28023;DHT22;67403;50.104;8.758;2023-03-20T13:39:39;14.60;99.90
28023;DHT22;67403;50.104;8.758;2023-03-20T13:42:11;14.50;99.90
28023;DHT22;67403;50.104;8.758;2023-03-20T13:44:40;14.40;99.90
28023;DHT22;67403;50.104;8.758;2023-03-20T13:47:12;14.60;99.90
28023;DHT22;67403;50.104;8.758;2023-03-20T13:49:47;14.50;99.90
28023;DHT22;67403;50.104;8.758;2023-03-20T13:52:19;14.70;99.90
28023;DHT22;67403;50.104;8.758;2023-03-20T13:55:01;14.60;99.90
28023;DHT22;67403;50.104;8.758;2023-03-20T13:57:58;14.60;99.90
28023;DHT22;67403;50.104;8.758;2023-03-20T14:00:34;14.40;99.90
28023;DHT22;67403;50.104;8.758;2023-03-20T14:03:13;14.50;99.90
28023;DHT22;67403;50.104;8.758;2023-03-20T14:05:44;14.50;99.90
28023;DHT22;67403;50.104;8.758;2023-03-20T14:08:31;14.50;99.90
28023;DHT22;67403;50.104;8.758;2023-03-20T14:11:15;14.50;99.90
28023;DHT22;67403;50.104;8.758;2023-03-20T14:14:01;14.40;99.90
28023;DHT22;67403;50.104;8.758;2023-03-20T14:16:30;14.40;99.90
28023;DHT22;67403;50.104;8.758;2023-03-20T14:19:07;14.50;99.90
28023;DHT22;67403;50.104;8.758;2023-03-20T14:21:35;14.40;99.90
28023;DHT22;67403;50.104;8.758;2023-03-20T14:24:04;14.50;99.90
28023;DHT22;67403;50.104;8.758;2023-03-20T14:26:34;14.40;99.90
28023;DHT22;67403;50.104;8.758;2023-03-20T14:29:20;14.60;99.90
28023;DHT22;67403;50.104;8.758;2023-03-20T14:31:48;14.60;99.90
28023;DHT22;67403;50.104;8.758;2023-03-20T14:34:20;14.50;99.90
28023;DHT22;67403;50.104;8.758;2023-03-20T14:36:56;14.50;99.90
28023;DHT22;67403;50.104;8.758;2023-03-20T14:39:38;14.50;99.90
28023;DHT22;67403;50.104;8.758;2023-03-20T14:42:20;14.40;99.90
28023;DHT22;67403;50.104;8.758;2023-03-20T14:45:26;14.40;99.90
28023;DHT22;67403;50.104;8.758;2023-03-20T14:47:59;14.40;99.90
28023;DHT22;67403;50.104;8.758;2023-03-20T14:50:33;14.30;99.90
28023;DHT22;67403;50.104;8.758;2023-03-20T14:53:11;14.40;99.90
28023;DHT22;67403;50.104;8.758;2023-03-20T14:56:07;14.30;99.90
28023;DHT22;67403;50.104;8.758;2023-03-20T14:58:46;14.50;99.90
28023;DHT22;67403;50.104;8.758;2023-03-20T15:01:16;14.50;99.90
28023;DHT22;67403;50.104;8.758;2023-03-20T15:03:48;14.40;99.90
28023;DHT22;67403;50.104;8.758;2023-03-20T15:06:20;14.30;99.90
28023;DHT22;67403;50.104;8.758;2023-03-20T15:08:50;14.30;99.90
28023;DHT22;67403;50.104;8.758;2023-03-20T15:11:20;14.30;99.90
28023;DHT22;67403;50.104;8.758;2023-03-20T15:13:48;14.30;99.90
28023;DHT22;67403;50.104;8.758;2023-03-20T15:16:16;14.10;99.90
28023;DHT22;67403;50.104;8.758;2023-03-20T15:18:52;13.90;99.90
28023;DHT22;67403;50.104;8.758;2023-03-20T15:21:27;13.90;99.90
28023;DHT22;67403;50.104;8.758;2023-03-20T15:23:56;14.00;99.90
28023;DHT22;67403;50.104;8.758;2023-03-20T15:26:24;13.90;99.90
28023;DHT22;67403;50.104;8.758;2023-03-20T15:28:58;13.80;99.90
28023;DHT22;67403;50.104;8.758;2023-03-20T15:31:54;13.80;99.90
28023;DHT22;67403;50.104;8.758;2023-03-20T15:34:24;13.80;99.90
28023;DHT22;67403;50.104;8.758;2023-03-20T15:37:20;13.80;99.90
28023;DHT22;67403;50.104;8.758;2023-03-20T15:39:50;13.60;99.90
28023;DHT22;67403;50.104;8.758;2023-03-20T15:42:20;13.50;99.90
28023;DHT22;67403;50.104;8.758;2023-03-20T15:44:48;13.50;99.90
28023;DHT22;67403;50.104;8.758;2023-03-20T15:47:18;13.40;99.90
28023;DHT22;67403;50.104;8.758;2023-03-20T15:49:51;13.40;99.90
28023;DHT22;67403;50.104;8.758;2023-03-20T15:52:26;13.30;99.90
28023;DHT22;67403;50.104;8.758;2023-03-20T15:54:54;13.30;99.90
28023;DHT22;67403;50.104;8.758;2023-03-20T15:57:24;13.30;99.90
28023;DHT22;67403;50.104;8.758;2023-03-20T15:59:52;13.10;99.90
28023;DHT22;67403;50.104;8.758;2023-03-20T16:02:19;13.00;99.90
28023;DHT22;67403;50.104;8.758;2023-03-20T16:04:49;12.80;99.90
28023;DHT22;67403;50.104;8.758;2023-03-20T16:07:22;12.70;99.90
28023;DHT22;67403;50.104;8.758;2023-03-20T16:09:49;12.70;99.90
28023;DHT22;67403;50.104;8.758;2023-03-20T16:12:17;12.60;99.90